Time;durP1;ratioP1;P1;durP2;ratioP2;P2;SDS_P1;SDS_P2;PMS_P1;PMS_P2;Temp;Humidity;BMP_temperature;BMP_pressure;BME280_temperature;BME280_humidity;BME280_pressure;Samples;Min_cycle;Max_cycle;Signal;HPM_P1;HPM_P2
2023/07/16 00:00:26;;;;;;;21.17;16.05;;;;;;;23.54;89.08;97919.00;4471757;32;20104;-79
2023/07/16 00:02:53;;;;;;;20.37;14.68;;;;;;;23.13;91.03;97909.84;4471459;32;20454;-79
2023/07/16 00:05:21;;;;;;;19.25;14.70;;;;;;;23.55;87.83;97922.47;4471733;32;20541;-79
2023/07/16 00:07:48;;;;;;;21.85;15.13;;;;;;;23.48;87.67;97916.97;4471453;32;20105;-79
2023/07/16 00:10:15;;;;;;;20.90;15.75;;;;;;;22.90;90.00;97916.50;4471274;32;20100;-79
2023/07/16 00:12:42;;;;;;;20.77;15.45;;;;;;;21.97;95.39;97909.38;4471660;32;20105;-79
2023/07/16 00:15:09;;;;;;;18.40;15.40;;;;;;;22.25;93.25;97902.44;4471591;32;20495;-79
2023/07/16 00:17:36;;;;;;;20.25;15.95;;;;;;;22.58;90.69;97899.28;4471233;32;20104;-79
2023/07/16 00:20:05;;;;;;;22.33;18.33;;;;;;;22.60;91.77;97914.94;4470466;32;20114;-79
2023/07/16 00:22:33;;;;;;;22.15;18.23;;;;;;;21.86;100.00;97907.72;4471513;32;20080;-79
2023/07/16 00:25:00;;;;;;;25.33;18.35;;;;;;;21.78;100.00;97911.03;4471262;32;20332;-79
2023/07/16 00:27:26;;;;;;;20.95;16.67;;;;;;;22.47;96.88;97902.09;4471438;32;20160;-79
2023/07/16 00:29:53;;;;;;;23.70;18.98;;;;;;;21.99;98.00;97889.87;4470998;32;20461;-79
2023/07/16 00:32:20;;;;;;;24.55;20.02;;;;;;;22.02;100.00;97897.50;4471250;32;20213;-79
2023/07/16 00:34:47;;;;;;;23.35;17.92;;;;;;;22.49;97.09;97900.97;4471384;32;20077;-79
2023/07/16 00:37:14;;;;;;;21.70;17.45;;;;;;;22.71;95.95;97894.53;4470829;32;20100;-79
2023/07/16 00:39:41;;;;;;;24.37;18.23;;;;;;;22.80;94.40;97895.47;4471278;32;20096;-79
2023/07/16 00:42:08;;;;;;;25.33;18.73;;;;;;;23.22;91.70;97897.63;4471223;32;20112;-79
2023/07/16 00:44:35;;;;;;;22.10;18.85;;;;;;;22.87;94.52;97888.69;4470959;32;20115;-79
2023/07/16 00:47:02;;;;;;;23.40;18.33;;;;;;;23.44;91.35;97886.66;4471196;32;20099;-79
2023/07/16 00:49:30;;;;;;;22.02;18.58;;;;;;;23.42;90.62;97895.69;4471270;32;20085;-79
2023/07/16 00:51:56;;;;;;;22.83;19.48;;;;;;;23.79;88.60;97899.00;4456702;32;20080;-79
2023/07/16 00:54:23;;;;;;;24.20;19.05;;;;;;;23.35;92.20;97890.19;4457184;32;20134;-79
2023/07/16 00:56:50;;;;;;;22.70;18.95;;;;;;;23.53;91.48;97898.09;4470933;32;20416;-79
2023/07/16 00:59:17;;;;;;;23.02;19.48;;;;;;;23.80;90.25;97898.03;4470627;32;20422;-79
2023/07/16 01:01:44;;;;;;;23.27;19.58;;;;;;;24.01;87.12;97892.41;4470945;32;20171;-79
2023/07/16 01:04:11;;;;;;;22.50;19.42;;;;;;;23.34;92.03;97884.09;4471093;32;20107;-79
2023/07/16 01:06:41;;;;;;;23.67;19.27;;;;;;;23.46;92.48;97878.59;4456630;32;20739;-79
2023/07/16 01:09:18;;;;;;;24.50;19.15;;;;;;;23.61;91.60;97879.78;4470810;32;20163;-79
2023/07/16 01:11:46;;;;;;;24.90;19.10;;;;;;;23.28;94.54;97873.31;4470883;32;20085;-79
2023/07/16 01:14:16;;;;;;;23.38;18.40;;;;;;;23.70;91.20;97870.94;4456592;32;20084;-79
2023/07/16 01:16:43;;;;;;;21.27;18.20;;;;;;;23.86;90.71;97865.81;4470800;32;20150;-79
2023/07/16 01:19:10;;;;;;;24.10;19.00;;;;;;;23.43;92.87;97863.94;4470340;32;20513;-79
2023/07/16 01:22:03;;;;;;;23.42;18.95;;;;;;;23.59;92.18;97874.63;4470703;32;20089;-79
2023/07/16 01:24:42;;;;;;;23.27;18.80;;;;;;;23.80;90.89;97863.78;4456954;32;20476;-80
2023/07/16 01:27:47;;;;;;;21.40;18.15;;;;;;;23.51;93.55;97864.00;4470346;32;20092;-80
2023/07/16 01:30:18;;;;;;;22.23;18.45;;;;;;;23.33;93.98;97863.19;4406017;32;20135;-80
2023/07/16 01:32:46;;;;;;;20.83;18.60;;;;;;;23.40;93.44;97861.63;4472864;32;20167;-80
2023/07/16 01:35:13;;;;;;;25.50;19.70;;;;;;;23.55;91.98;97854.81;4472531;32;20105;-80
2023/07/16 01:37:41;;;;;;;24.35;20.42;;;;;;;23.36;94.28;97862.88;4458644;32;20115;-80
2023/07/16 01:40:09;;;;;;;22.65;19.80;;;;;;;23.52;92.92;97862.22;4458374;32;20165;-80
2023/07/16 01:42:36;;;;;;;22.62;19.10;;;;;;;23.79;91.40;97848.94;4458714;32;20101;-80
2023/07/16 01:45:03;;;;;;;23.15;18.62;;;;;;;23.78;91.47;97849.09;4472893;32;20149;-80
2023/07/16 01:47:47;;;;;;;22.83;19.52;;;;;;;24.02;89.65;97846.63;4472222;32;20169;-80
2023/07/16 01:50:14;;;;;;;23.08;17.95;;;;;;;23.76;91.98;97844.00;4458560;32;20450;-80
2023/07/16 01:52:41;;;;;;;21.85;17.73;;;;;;;24.20;86.12;97838.69;4472750;32;20085;-80
2023/07/16 01:55:08;;;;;;;21.45;17.25;;;;;;;24.61;83.08;97847.66;4472327;32;20156;-80
2023/07/16 01:57:35;;;;;;;20.70;16.95;;;;;;;24.03;84.87;97840.41;4472444;32;20159;-80
2023/07/16 02:00:03;;;;;;;25.37;19.83;;;;;;;23.38;88.00;97845.13;4472553;32;20084;-80
2023/07/16 02:02:30;;;;;;;24.70;19.37;;;;;;;21.91;100.00;97838.06;4472073;32;20108;-80
2023/07/16 02:04:57;;;;;;;23.30;16.83;;;;;;;22.04;100.00;97843.00;4472633;32;20077;-80
2023/07/16 02:07:24;;;;;;;23.55;18.27;;;;;;;21.94;95.97;97845.66;4472469;32;20093;-79
2023/07/16 02:09:51;;;;;;;23.85;19.25;;;;;;;22.26;93.40;97848.91;4472152;32;20456;-79
2023/07/16 02:12:18;;;;;;;24.08;20.23;;;;;;;22.33;93.93;97853.47;4472357;32;20093;-79
2023/07/16 02:14:45;;;;;;;27.20;20.80;;;;;;;21.50;100.00;97859.37;4472567;32;20085;-79
2023/07/16 02:17:11;;;;;;;28.38;22.55;;;;;;;21.86;99.62;97849.94;4472011;32;20099;-79
2023/07/16 02:19:38;;;;;;;29.87;22.90;;;;;;;21.96;99.30;97856.00;4472392;32;20438;-79
2023/07/16 02:22:05;;;;;;;28.45;23.20;;;;;;;21.73;100.00;97847.62;4472074;32;20426;-79
2023/07/16 02:24:32;;;;;;;30.00;24.33;;;;;;;21.79;100.00;97860.16;4472589;32;20140;-79
2023/07/16 02:26:59;;;;;;;30.15;24.48;;;;;;;21.77;100.00;97854.22;4472421;32;20089;-79
2023/07/16 02:29:26;;;;;;;29.58;22.77;;;;;;;22.25;100.00;97858.59;4471830;32;20454;-79
2023/07/16 02:31:53;;;;;;;28.77;23.35;;;;;;;22.19;100.00;97861.78;4472429;32;20457;-79
2023/07/16 02:34:21;;;;;;;28.20;24.17;;;;;;;21.94;100.00;97848.28;4472433;32;20129;-79
2023/07/16 02:36:47;;;;;;;29.85;24.80;;;;;;;22.51;98.78;97848.25;4471802;32;20160;-79
2023/07/16 02:39:14;;;;;;;28.00;24.37;;;;;;;22.35;100.00;97846.25;4458079;32;20100;-79
2023/07/16 02:41:41;;;;;;;30.12;25.55;;;;;;;21.65;100.00;97840.44;4472243;32;20089;-79
2023/07/16 02:44:09;;;;;;;33.05;24.20;;;;;;;21.85;100.00;97837.78;4471307;32;20140;-79
2023/07/16 02:46:36;;;;;;;28.33;22.08;;;;;;;22.48;100.00;97844.13;4472261;32;20111;-79
2023/07/16 02:49:03;;;;;;;27.48;23.60;;;;;;;23.01;95.16;97848.72;4472148;32;20100;-79
2023/07/16 02:51:30;;;;;;;27.48;22.85;;;;;;;22.70;98.99;97849.97;4471843;32;20148;-79
2023/07/16 02:53:56;;;;;;;25.37;21.90;;;;;;;22.85;98.99;97840.62;4472218;32;20080;-79
2023/07/16 02:56:23;;;;;;;27.30;21.62;;;;;;;22.39;100.00;97844.97;4472120;32;20107;-79
2023/07/16 02:58:50;;;;;;;25.50;21.20;;;;;;;23.02;95.55;97855.62;4471651;32;20430;-79
2023/07/16 03:01:17;;;;;;;27.20;21.80;;;;;;;22.20;97.75;97851.13;4472102;32;20089;-79
2023/07/16 03:03:44;;;;;;;27.37;22.13;;;;;;;22.13;97.38;97847.44;4472269;32;20092;-79
2023/07/16 03:06:11;;;;;;;27.23;21.73;;;;;;;21.84;99.45;97857.13;4471848;32;20435;-79
2023/07/16 03:08:38;;;;;;;28.45;23.58;;;;;;;21.89;98.62;97863.62;4472048;32;20519;-79
2023/07/16 03:11:05;;;;;;;27.67;22.62;;;;;;;22.28;99.12;97849.59;4472173;32;20089;-79
2023/07/16 03:13:32;;;;;;;30.60;23.20;;;;;;;22.31;99.62;97852.75;4472317;32;20156;-79
2023/07/16 03:15:59;;;;;;;28.15;23.05;;;;;;;22.42;100.00;97857.00;4472007;32;20096;-79
2023/07/16 03:18:29;;;;;;;26.75;21.85;;;;;;;22.48;100.00;97859.06;4471712;32;20105;-79
2023/07/16 03:20:57;;;;;;;31.00;22.90;;;;;;;22.43;100.00;97858.66;4472038;32;20089;-79
2023/07/16 03:23:24;;;;;;;23.90;20.40;;;;;;;22.51;100.00;97866.66;4472068;32;20104;-79
2023/07/16 03:25:52;;;;;;;22.70;19.40;;;;;;;23.45;94.20;97874.31;4457568;32;20435;-79
2023/07/16 03:28:18;;;;;;;27.02;20.98;;;;;;;23.28;93.36;97873.31;4471895;32;20108;-79
2023/07/16 03:30:50;;;;;;;25.08;20.65;;;;;;;23.28;95.10;97876.78;4471615;32;20080;-79
2023/07/16 03:33:17;;;;;;;24.85;20.05;;;;;;;23.43;93.52;97868.38;4471725;32;20077;-79
2023/07/16 03:35:45;;;;;;;25.95;19.70;;;;;;;23.88;90.35;97860.38;4471992;32;20146;-79
2023/07/16 03:38:13;;;;;;;21.80;19.30;;;;;;;23.55;92.98;97859.25;4471700;32;20171;-79
2023/07/16 03:40:46;;;;;;;22.35;19.30;;;;;;;23.80;92.88;97861.13;4457450;32;20164;-79
2023/07/16 03:43:14;;;;;;;22.15;18.70;;;;;;;23.78;93.28;97851.75;4472000;32;20073;-79
2023/07/16 03:45:40;;;;;;;22.25;18.75;;;;;;;24.29;90.61;97847.47;4471929;32;20084;-79
2023/07/16 03:48:07;;;;;;;22.92;18.83;;;;;;;23.98;91.71;97847.94;4471479;32;20088;-79
2023/07/16 03:50:35;;;;;;;20.50;17.42;;;;;;;23.85;94.47;97853.63;4471724;32;20088;-79
2023/07/16 03:53:05;;;;;;;18.70;16.70;;;;;;;24.66;82.45;97853.28;4471852;32;20153;-80
2023/07/16 03:55:32;;;;;;;21.60;17.52;;;;;;;24.38;82.48;97857.94;4457821;32;20127;-80
2023/07/16 03:57:59;;;;;;;21.17;16.33;;;;;;;23.86;85.42;97859.72;4471593;32;20096;-80
2023/07/16 04:00:26;;;;;;;19.83;17.08;;;;;;;23.44;88.59;97870.03;4457465;32;20089;-79
2023/07/16 04:02:53;;;;;;;19.37;16.48;;;;;;;23.76;89.11;97872.16;4471643;32;20154;-79
2023/07/16 04:05:20;;;;;;;19.98;16.70;;;;;;;24.66;83.64;97870.91;4471698;32;20151;-79
2023/07/16 04:07:50;;;;;;;17.95;14.43;;;;;;;24.63;87.94;97873.87;4471342;32;20155;-79
2023/07/16 04:10:17;;;;;;;19.67;14.65;;;;;;;25.81;79.02;97867.56;4471562;32;20085;-79
2023/07/16 04:12:44;;;;;;;20.17;13.73;;;;;;;26.03;78.43;97871.34;4471669;32;20103;-80
2023/07/16 04:15:11;;;;;;;17.73;13.50;;;;;;;27.03;72.79;97881.38;4471205;32;20084;-80
2023/07/16 04:17:38;;;;;;;19.08;12.90;;;;;;;27.59;70.71;97878.53;4471509;32;20100;-80
2023/07/16 04:20:06;;;;;;;18.30;12.37;;;;;;;27.97;66.01;97895.34;4471655;32;20092;-80
2023/07/16 04:22:35;;;;;;;17.67;12.60;;;;;;;28.62;63.29;97880.63;4471105;32;20461;-80
2023/07/16 04:25:03;;;;;;;15.55;12.45;;;;;;;28.61;63.44;97881.63;4471545;32;20164;-80
2023/07/16 04:27:31;;;;;;;15.48;11.90;;;;;;;28.98;64.04;97888.66;4471413;32;20096;-80
2023/07/16 04:29:58;;;;;;;14.18;10.45;;;;;;;30.33;59.54;97891.44;4466414;32;140931;-80
2023/07/16 04:32:25;;;;;;;20.08;10.80;;;;;;;30.78;56.94;97888.22;4471450;32;20080;-80
2023/07/16 04:34:52;;;;;;;13.68;10.68;;;;;;;31.64;54.65;97891.19;4471499;32;20100;-80
2023/07/16 04:37:19;;;;;;;16.77;10.20;;;;;;;32.43;51.54;97890.44;4470849;32;20491;-80
2023/07/16 04:39:46;;;;;;;14.25;10.82;;;;;;;33.17;49.53;97896.34;4471345;32;20167;-80
2023/07/16 04:42:13;;;;;;;12.40;9.88;;;;;;;33.00;48.96;97890.69;4471263;32;20073;-80
2023/07/16 04:44:39;;;;;;;12.57;10.20;;;;;;;33.02;49.43;97893.97;4471060;32;20092;-80
2023/07/16 04:47:06;;;;;;;14.85;10.75;;;;;;;33.80;47.77;97899.91;4471281;32;20100;-80
2023/07/16 04:49:35;;;;;;;16.30;11.23;;;;;;;34.32;47.13;97910.41;4470921;32;20176;-80
2023/07/16 04:52:02;;;;;;;14.60;11.02;;;;;;;34.48;46.80;97894.62;4471076;32;20433;-80
2023/07/16 04:54:29;;;;;;;13.90;10.15;;;;;;;35.01;45.45;97898.63;4471192;32;20105;-80
2023/07/16 04:56:56;;;;;;;14.87;10.40;;;;;;;35.72;43.70;97903.22;4456695;32;20108;-80
2023/07/16 04:59:23;;;;;;;12.15;9.35;;;;;;;36.36;42.31;97903.47;4470894;32;20356;-80
2023/07/16 05:01:50;;;;;;;12.65;8.95;;;;;;;36.69;41.07;97905.56;4471045;32;20077;-80
2023/07/16 05:04:17;;;;;;;13.82;10.05;;;;;;;36.35;41.60;97905.31;4470669;32;20093;-80
2023/07/16 05:06:44;;;;;;;12.73;10.13;;;;;;;36.03;42.19;97906.69;4472180;32;20438;-80
2023/07/16 05:09:11;;;;;;;14.27;10.73;;;;;;;36.50;41.45;97903.00;4472743;32;20164;-80
2023/07/16 05:11:38;;;;;;;13.75;10.43;;;;;;;36.36;41.59;97901.59;4472561;32;20437;-80
2023/07/16 05:14:04;;;;;;;16.17;9.75;;;;;;;35.48;43.98;97893.47;4473075;32;20136;-80
2023/07/16 05:16:31;;;;;;;12.50;9.15;;;;;;;36.01;42.70;97896.19;4458835;32;20124;-80
2023/07/16 05:18:58;;;;;;;14.65;10.10;;;;;;;35.38;43.95;97901.25;4472515;32;20089;-80
2023/07/16 05:21:25;;;;;;;12.52;9.32;;;;;;;36.76;41.35;97900.84;4472795;32;20084;-80
2023/07/16 05:23:52;;;;;;;13.50;11.35;;;;;;;35.47;43.15;97903.38;4472948;32;20100;-80
2023/07/16 05:26:19;;;;;;;16.12;13.62;;;;;;;33.54;47.81;97902.78;4472688;32;20099;-80
2023/07/16 05:28:46;;;;;;;17.00;13.13;;;;;;;33.19;47.93;97907.69;4472594;32;20347;-80
2023/07/16 05:31:13;;;;;;;18.65;14.30;;;;;;;31.93;50.91;97903.34;4472529;32;20077;-80
2023/07/16 05:33:40;;;;;;;18.00;13.65;;;;;;;31.79;51.73;97900.88;4472425;32;20089;-80
2023/07/16 05:36:07;;;;;;;16.48;13.88;;;;;;;31.03;54.25;97904.53;4472789;32;20163;-80
2023/07/16 05:38:34;;;;;;;15.88;12.27;;;;;;;31.55;54.17;97907.59;4472358;32;20115;-80
2023/07/16 05:41:02;;;;;;;16.83;12.00;;;;;;;33.15;49.40;97909.94;4472535;32;20085;-80
2023/07/16 05:43:29;;;;;;;17.67;12.48;;;;;;;35.12;44.30;97911.25;4472636;32;20096;-80
2023/07/16 05:45:56;;;;;;;16.33;12.40;;;;;;;36.18;41.32;97921.31;4472463;32;20100;-80
2023/07/16 05:48:24;;;;;;;16.37;11.60;;;;;;;36.30;41.04;97925.88;4458597;32;20172;-80
2023/07/16 05:50:51;;;;;;;16.50;11.93;;;;;;;35.99;41.40;97927.00;4458436;32;20081;-80
2023/07/16 05:53:18;;;;;;;14.45;11.45;;;;;;;36.27;41.07;97929.03;4472125;32;20171;-80
2023/07/16 05:55:45;;;;;;;16.85;11.43;;;;;;;37.26;39.33;97921.78;4472654;32;20484;-80
2023/07/16 05:58:12;;;;;;;14.48;11.57;;;;;;;36.10;41.32;97926.19;4472532;32;20106;-80
2023/07/16 06:00:39;;;;;;;14.40;11.25;;;;;;;35.02;43.87;97929.75;4472282;32;20176;-80
2023/07/16 06:03:06;;;;;;;16.10;11.80;;;;;;;35.15;43.12;97931.44;4472619;32;20118;-80
2023/07/16 06:05:34;;;;;;;16.87;11.38;;;;;;;35.67;42.25;97942.53;4472573;32;20163;-80
2023/07/16 06:08:01;;;;;;;19.08;12.32;;;;;;;35.55;42.66;97951.37;4458106;32;20097;-80
2023/07/16 06:10:28;;;;;;;16.23;11.57;;;;;;;35.22;43.33;97943.72;4472457;32;20072;-80
2023/07/16 06:12:55;;;;;;;15.15;11.80;;;;;;;34.68;44.45;97945.34;4472490;32;20484;-80
2023/07/16 06:15:22;;;;;;;15.40;11.50;;;;;;;35.21;43.41;97952.81;4472226;32;20097;-80
2023/07/16 06:17:49;;;;;;;15.88;11.93;;;;;;;33.41;46.87;97957.16;4471394;32;20089;-80
2023/07/16 06:20:16;;;;;;;16.35;11.70;;;;;;;33.02;47.84;97958.09;4472480;32;20077;-80
2023/07/16 06:22:43;;;;;;;16.50;12.70;;;;;;;33.29;47.74;97969.53;4472184;32;20455;-80
2023/07/16 06:25:10;;;;;;;19.23;13.70;;;;;;;31.89;52.16;97968.00;4472484;32;20092;-80
2023/07/16 06:27:37;;;;;;;18.60;13.50;;;;;;;32.19;50.91;97971.91;4471987;32;20089;-80
2023/07/16 06:30:08;;;;;;;17.77;13.00;;;;;;;32.83;48.95;97970.47;4472197;32;20187;-80
2023/07/16 06:32:35;;;;;;;17.05;12.50;;;;;;;31.81;51.45;97968.19;4472332;32;20096;-80
2023/07/16 06:35:02;;;;;;;14.50;11.52;;;;;;;31.10;54.61;97960.50;4472105;32;20115;-80
2023/07/16 06:37:29;;;;;;;14.73;10.80;;;;;;;31.77;52.03;97959.75;4472155;32;20461;-80
2023/07/16 06:39:56;;;;;;;14.63;9.68;;;;;;;32.40;50.30;97970.09;4472421;32;20114;-80
2023/07/16 06:42:23;;;;;;;14.85;9.63;;;;;;;32.95;48.45;97978.66;4471840;32;20145;-80
2023/07/16 06:44:49;;;;;;;12.23;7.35;;;;;;;33.12;47.95;97974.53;4472360;32;20365;-80
2023/07/16 06:47:16;;;;;;;11.65;7.50;;;;;;;33.32;45.68;97975.25;4472184;32;20102;-80
2023/07/16 06:49:44;;;;;;;11.93;6.12;;;;;;;33.30;46.68;97974.66;4471951;32;20132;-80
2023/07/16 06:52:27;;;;;;;12.13;6.80;;;;;;;33.62;43.94;97975.56;4472111;32;20157;-80
2023/07/16 06:54:55;;;;;;;12.48;6.40;;;;;;;33.24;44.47;97972.00;4472448;32;20186;-80
2023/07/16 06:57:22;;;;;;;13.65;6.72;;;;;;;33.03;45.90;97975.78;4471723;32;20092;-80
2023/07/16 06:59:49;;;;;;;12.23;6.10;;;;;;;33.14;44.79;97971.63;4472232;32;20081;-80
2023/07/16 07:02:17;;;;;;;10.52;6.40;;;;;;;33.56;43.79;97975.59;4472084;32;20097;-80
2023/07/16 07:04:44;;;;;;;14.05;7.12;;;;;;;33.73;43.62;97981.28;4471814;32;20438;-80
2023/07/16 07:07:11;;;;;;;11.88;6.12;;;;;;;33.93;42.88;97982.81;4471876;32;20152;-80
2023/07/16 07:09:38;;;;;;;11.80;6.28;;;;;;;33.35;44.37;97980.22;4472248;32;20080;-80
2023/07/16 07:12:05;;;;;;;10.68;5.68;;;;;;;33.78;42.96;97986.78;4471825;32;20097;-80
2023/07/16 07:14:33;;;;;;;10.85;6.45;;;;;;;33.69;42.52;97994.25;4472123;32;20111;-80
2023/07/16 07:17:00;;;;;;;11.18;6.65;;;;;;;33.74;43.38;97998.97;4471637;32;20575;-80
2023/07/16 07:19:27;;;;;;;12.02;6.05;;;;;;;33.63;42.88;97992.44;4472141;32;20439;-80
2023/07/16 07:21:54;;;;;;;12.43;5.97;;;;;;;33.24;44.11;97980.84;4471963;32;20195;-80
2023/07/16 07:24:21;;;;;;;13.80;6.20;;;;;;;33.12;43.66;97982.53;4471687;32;20129;-80
2023/07/16 07:26:47;;;;;;;12.90;6.70;;;;;;;32.76;45.00;97981.16;4472059;32;20092;-80
2023/07/16 07:29:14;;;;;;;10.80;5.60;;;;;;;32.48;45.96;97989.41;4471354;32;20082;-80
2023/07/16 07:31:41;;;;;;;12.23;6.10;;;;;;;33.34;43.71;97996.44;4471514;32;20152;-80
2023/07/16 07:34:08;;;;;;;12.73;6.50;;;;;;;33.15;44.03;97987.44;4472025;32;20496;-80
2023/07/16 07:36:35;;;;;;;10.52;5.35;;;;;;;33.22;44.62;97990.13;4471948;32;20111;-80
2023/07/16 07:39:02;;;;;;;13.23;5.97;;;;;;;33.64;43.77;97988.72;4471347;32;20099;-80
2023/07/16 07:41:29;;;;;;;12.50;5.68;;;;;;;33.73;42.64;97990.13;4457818;32;20138;-80
2023/07/16 07:43:56;;;;;;;11.65;5.97;;;;;;;33.77;42.47;97988.66;4471817;32;20155;-80
2023/07/16 07:46:23;;;;;;;11.35;5.53;;;;;;;33.97;42.93;97995.75;4471579;32;20092;-80
2023/07/16 07:48:50;;;;;;;12.75;5.70;;;;;;;33.53;41.35;97989.41;4471776;32;20107;-80
2023/07/16 07:51:17;;;;;;;15.60;6.15;;;;;;;33.19;43.05;97993.22;4471847;32;20109;-80
2023/07/16 07:53:44;;;;;;;11.55;5.62;;;;;;;33.25;42.64;97987.00;4471546;32;20098;-80
2023/07/16 07:56:11;;;;;;;11.35;5.75;;;;;;;33.34;42.35;97989.25;4471763;32;20085;-80
2023/07/16 07:58:38;;;;;;;12.75;5.40;;;;;;;33.03;42.86;97995.31;4471682;32;20190;-80
2023/07/16 08:01:06;;;;;;;10.13;5.28;;;;;;;33.34;41.28;97991.09;4471425;32;20210;-80
2023/07/16 08:03:33;;;;;;;12.02;5.75;;;;;;;33.63;40.91;97998.59;4457768;32;20109;-80
2023/07/16 08:06:01;;;;;;;12.73;5.70;;;;;;;33.61;41.28;98000.69;4471566;32;20081;-80
2023/07/16 08:08:28;;;;;;;11.55;5.37;;;;;;;33.74;41.61;98002.47;4471596;32;20103;-80
2023/07/16 08:10:55;;;;;;;13.90;5.85;;;;;;;33.84;41.31;97994.78;4471647;32;20104;-80
2023/07/16 08:13:22;;;;;;;10.05;5.55;;;;;;;34.27;40.50;97999.47;4471445;32;20144;-80
2023/07/16 08:15:49;;;;;;;12.37;6.18;;;;;;;34.13;39.21;97993.38;4457666;32;20123;-80
2023/07/16 08:18:16;;;;;;;12.85;6.18;;;;;;;34.52;39.93;97999.47;4471362;32;20068;-80
2023/07/16 08:20:43;;;;;;;11.05;5.00;;;;;;;34.38;40.46;97995.28;4471240;32;20113;-80
2023/07/16 08:23:10;;;;;;;11.00;5.72;;;;;;;34.66;39.43;98001.00;4471607;32;20096;-80
2023/07/16 08:25:37;;;;;;;11.95;5.93;;;;;;;34.80;38.88;98002.53;4471523;32;20084;-81
2023/07/16 08:28:04;;;;;;;12.70;5.72;;;;;;;34.71;39.37;98006.53;4471049;32;20076;-80
2023/07/16 08:30:32;;;;;;;11.15;5.65;;;;;;;34.49;39.28;98006.09;4471296;32;20148;-81
2023/07/16 08:33:00;;;;;;;10.68;5.10;;;;;;;34.29;40.23;98007.28;4471552;32;20157;-80
2023/07/16 08:35:27;;;;;;;13.70;5.75;;;;;;;34.51;39.83;98004.03;4471269;32;20499;-80
2023/07/16 08:37:54;;;;;;;11.80;5.70;;;;;;;33.90;39.48;98004.66;4471094;32;20108;-81
2023/07/16 08:40:21;;;;;;;10.48;5.40;;;;;;;34.19;39.81;98005.91;4470319;32;20100;-80
2023/07/16 08:42:49;;;;;;;9.50;5.30;;;;;;;33.80;41.00;98003.44;4470972;32;20111;-80
2023/07/16 08:45:16;;;;;;;11.23;5.53;;;;;;;34.42;40.23;98005.34;4471313;32;20105;-81
2023/07/16 08:47:43;;;;;;;12.05;6.35;;;;;;;34.32;40.33;98006.81;4471153;32;20407;-81
2023/07/16 08:50:10;;;;;;;14.00;6.00;;;;;;;35.00;40.90;98013.06;4471080;32;20467;-81
2023/07/16 08:52:37;;;;;;;14.95;6.35;;;;;;;35.84;38.50;98014.13;4457222;32;20135;-81
2023/07/16 08:55:05;;;;;;;12.68;6.05;;;;;;;35.96;38.49;98008.03;4456865;32;20093;-81
2023/07/16 08:57:32;;;;;;;13.45;5.78;;;;;;;35.51;38.38;98009.19;4470877;32;20077;-81
2023/07/16 09:00:00;;;;;;;11.02;6.00;;;;;;;35.66;37.90;98008.81;4457123;32;20117;-81
2023/07/16 09:02:27;;;;;;;9.90;5.70;;;;;;;36.19;38.19;98008.06;4456664;32;20116;-81
2023/07/16 09:04:54;;;;;;;12.07;5.57;;;;;;;35.68;39.65;98014.75;4471104;32;20134;-81
2023/07/16 09:07:21;;;;;;;13.27;6.25;;;;;;;35.65;38.77;98018.72;4456945;32;20081;-81
2023/07/16 09:09:58;;;;;;;10.30;5.93;;;;;;;35.54;39.28;98021.34;4456694;32;20112;-81
2023/07/16 09:12:26;;;;;;;15.25;6.07;;;;;;;35.09;38.99;98021.63;4470874;32;20092;-81
2023/07/16 09:14:53;;;;;;;10.85;6.03;;;;;;;35.21;39.29;98017.19;4470912;32;20092;-81
2023/07/16 09:17:24;;;;;;;13.38;6.10;;;;;;;35.11;38.69;98022.25;4470356;32;20092;-81
2023/07/16 09:19:52;;;;;;;12.45;5.85;;;;;;;34.94;39.52;98019.31;4470941;32;20116;-81
2023/07/16 09:22:19;;;;;;;10.35;5.90;;;;;;;35.49;38.41;98018.50;4470772;32;20398;-81
2023/07/16 09:24:47;;;;;;;12.25;5.93;;;;;;;35.42;38.40;98020.47;4470414;32;20564;-81
2023/07/16 09:27:14;;;;;;;11.88;6.53;;;;;;;34.91;41.22;98027.00;4456622;32;20464;-81
2023/07/16 09:29:41;;;;;;;11.60;5.87;;;;;;;34.59;41.13;98023.53;4470506;32;20101;-81
2023/07/16 09:32:08;;;;;;;13.70;6.10;;;;;;;35.21;39.56;98025.22;4456393;32;20109;-81
2023/07/16 09:34:35;;;;;;;13.30;6.18;;;;;;;34.99;41.22;98021.34;4470580;32;20101;-81
2023/07/16 09:37:05;;;;;;;11.77;6.57;;;;;;;34.38;41.67;98033.59;4470249;32;20131;-81
2023/07/16 09:39:33;;;;;;;10.65;6.72;;;;;;;34.53;41.38;98032.44;4456588;32;20537;-81
2023/07/16 09:42:02;;;;;;;11.43;6.82;;;;;;;34.57;40.90;98029.13;4456506;32;20096;-81
2023/07/16 09:44:29;;;;;;;11.95;6.20;;;;;;;34.95;40.83;98029.00;4470205;32;20093;-81
2023/07/16 09:46:56;;;;;;;10.18;5.75;;;;;;;35.56;39.89;98027.31;4456411;32;20088;-81
2023/07/16 09:49:27;;;;;;;10.23;6.12;;;;;;;35.57;39.94;98031.62;4470245;32;20101;-81
2023/07/16 09:51:58;;;;;;;14.65;6.50;;;;;;;35.77;40.47;98031.38;4456501;32;20108;-81
2023/07/16 09:54:27;;;;;;;12.60;6.37;;;;;;;35.62;39.42;98029.91;4458748;32;20084;-81
2023/07/16 09:56:58;;;;;;;11.02;6.30;;;;;;;35.74;39.36;98029.97;4472567;32;20093;-81
2023/07/16 09:59:27;;;;;;;11.40;6.05;;;;;;;35.60;39.06;98031.97;4458055;32;20101;-81
2023/07/16 10:01:56;;;;;;;12.45;6.15;;;;;;;35.11;39.39;98035.66;4458565;32;20450;-80
2023/07/16 10:04:23;;;;;;;10.52;6.12;;;;;;;35.41;39.73;98035.72;4458662;32;20080;-81
2023/07/16 10:06:55;;;;;;;10.13;6.43;;;;;;;35.40;40.18;98033.28;4472317;32;20089;-81
2023/07/16 10:09:32;;;;;;;10.80;5.90;;;;;;;34.79;41.40;98045.62;4472489;32;20092;-81
2023/07/16 10:12:13;;;;;;;11.05;6.28;;;;;;;34.44;40.23;98037.25;4472603;32;20435;-81
2023/07/16 10:14:41;;;;;;;10.15;6.18;;;;;;;34.85;39.95;98046.59;4472570;32;20085;-81
2023/07/16 10:17:11;;;;;;;10.57;6.12;;;;;;;35.17;40.27;98048.16;4472461;32;20102;-81
2023/07/16 10:20:00;;;;;;;12.25;6.07;;;;;;;35.72;38.45;98039.28;4458058;32;20097;-81
2023/07/16 10:22:38;;;;;;;11.90;6.57;;;;;;;35.73;38.96;98039.06;4472473;32;20148;-81
2023/07/16 10:25:21;;;;;;;13.05;6.47;;;;;;;35.55;38.75;98041.78;4472415;32;20076;-81
2023/07/16 10:27:50;;;;;;;14.20;6.75;;;;;;;35.39;38.86;98037.00;4472074;32;20111;-81
2023/07/16 10:30:18;;;;;;;10.38;6.15;;;;;;;34.44;40.84;98043.44;4458061;32;20360;-80
2023/07/16 10:32:46;;;;;;;10.60;6.50;;;;;;;34.98;40.96;98039.25;4472460;32;20143;-81
2023/07/16 10:35:13;;;;;;;11.10;6.62;;;;;;;34.49;41.32;98045.47;4472115;32;20089;-81
2023/07/16 10:37:40;;;;;;;10.60;6.37;;;;;;;34.59;41.31;98036.94;4472255;32;20077;-81
2023/07/16 10:40:11;;;;;;;11.77;6.40;;;;;;;34.59;41.47;98040.44;4472384;32;20502;-81
2023/07/16 10:42:42;;;;;;;11.63;7.50;;;;;;;34.73;39.55;98036.59;4472243;32;20159;-81
2023/07/16 10:45:09;;;;;;;14.30;6.60;;;;;;;35.77;39.27;98036.75;4472407;32;20084;-81
2023/07/16 10:47:39;;;;;;;11.73;6.10;;;;;;;35.45;40.76;98036.13;4471933;32;20068;-81
2023/07/16 10:50:08;;;;;;;9.82;6.80;;;;;;;35.65;39.49;98037.50;4472251;32;20401;-81
2023/07/16 10:52:35;;;;;;;11.38;6.30;;;;;;;35.36;39.16;98043.63;4472247;32;20102;-81
2023/07/16 10:55:03;;;;;;;11.35;7.07;;;;;;;35.03;39.29;98042.13;4471969;32;20081;-81
2023/07/16 10:57:30;;;;;;;11.43;6.90;;;;;;;35.49;38.65;98035.44;4472164;32;20513;-81
2023/07/16 10:59:58;;;;;;;10.98;7.00;;;;;;;34.52;39.97;98039.66;4472210;32;20093;-81
2023/07/16 11:02:26;;;;;;;10.90;7.18;;;;;;;34.73;39.95;98046.50;4457713;32;20120;-80
2023/07/16 11:04:53;;;;;;;11.10;6.87;;;;;;;35.08;40.17;98054.84;4471565;32;20174;-81
2023/07/16 11:07:21;;;;;;;10.90;7.40;;;;;;;35.72;38.95;98048.13;4458079;32;20489;-81
2023/07/16 11:09:53;;;;;;;11.50;7.03;;;;;;;36.03;38.72;98041.75;4471954;32;20115;-81
2023/07/16 11:12:24;;;;;;;11.52;6.70;;;;;;;35.72;38.72;98033.91;4472046;32;20085;-81
2023/07/16 11:14:53;;;;;;;15.18;7.07;;;;;;;35.21;40.14;98040.50;4472087;32;20119;-80
2023/07/16 11:17:22;;;;;;;10.75;6.50;;;;;;;34.61;41.73;98037.53;4471656;32;20104;-81
2023/07/16 11:19:51;;;;;;;12.45;6.97;;;;;;;35.35;41.63;98042.78;4471950;32;20104;-80
2023/07/16 11:22:18;;;;;;;12.52;7.18;;;;;;;35.32;39.99;98045.13;4471731;32;20114;-81